sensor_id;sensor_type;location;lat;lon;timestamp;temperature;humidity
26505;DHT22;19493;48.042;7.584;2023-03-21T00:01:55;5.40;99.90
26505;DHT22;19493;48.042;7.584;2023-03-21T00:04:25;5.30;99.90
26505;DHT22;19493;48.042;7.584;2023-03-21T00:06:51;5.30;99.90
26505;DHT22;19493;48.042;7.584;2023-03-21T00:09:18;5.30;99.90
26505;DHT22;19493;48.042;7.584;2023-03-21T00:11:44;5.20;99.90
26505;DHT22;19493;48.042;7.584;2023-03-21T00:14:10;5.00;99.90
26505;DHT22;19493;48.042;7.584;2023-03-21T00:16:39;4.90;99.90
26505;DHT22;19493;48.042;7.584;2023-03-21T00:19:04;4.80;99.90
26505;DHT22;19493;48.042;7.584;2023-03-21T00:21:34;4.80;99.90
26505;DHT22;19493;48.042;7.584;2023-03-21T00:24:03;4.70;99.90
26505;DHT22;19493;48.042;7.584;2023-03-21T00:26:30;4.70;99.90
26505;DHT22;19493;48.042;7.584;2023-03-21T00:28:56;4.60;99.90
26505;DHT22;19493;48.042;7.584;2023-03-21T00:31:22;4.70;99.90
26505;DHT22;19493;48.042;7.584;2023-03-21T00:33:47;4.60;99.90
26505;DHT22;19493;48.042;7.584;2023-03-21T00:36:13;4.70;99.90
26505;DHT22;19493;48.042;7.584;2023-03-21T00:38:40;4.60;99.90
26505;DHT22;19493;48.042;7.584;2023-03-21T00:41:08;4.60;99.90
26505;DHT22;19493;48.042;7.584;2023-03-21T00:43:34;4.50;99.90
26505;DHT22;19493;48.042;7.584;2023-03-21T00:46:00;4.50;99.90
26505;DHT22;19493;48.042;7.584;2023-03-21T00:48:26;4.40;99.90
26505;DHT22;19493;48.042;7.584;2023-03-21T00:50:54;4.40;99.90
26505;DHT22;19493;48.042;7.584;2023-03-21T00:53:20;4.40;99.90
26505;DHT22;19493;48.042;7.584;2023-03-21T00:55:46;4.30;99.90
26505;DHT22;19493;48.042;7.584;2023-03-21T00:58:12;4.30;99.90
26505;DHT22;19493;48.042;7.584;2023-03-21T01:00:37;4.30;99.90
26505;DHT22;19493;48.042;7.584;2023-03-21T01:03:07;4.30;99.90
26505;DHT22;19493;48.042;7.584;2023-03-21T01:05:38;4.30;99.90
26505;DHT22;19493;48.042;7.584;2023-03-21T01:08:23;4.40;99.90
26505;DHT22;19493;48.042;7.584;2023-03-21T01:10:50;4.50;99.90
26505;DHT22;19493;48.042;7.584;2023-03-21T01:13:18;4.50;99.90
26505;DHT22;19493;48.042;7.584;2023-03-21T01:15:54;4.50;99.90
26505;DHT22;19493;48.042;7.584;2023-03-21T01:18:23;4.50;99.90
26505;DHT22;19493;48.042;7.584;2023-03-21T01:20:50;4.50;99.90
26505;DHT22;19493;48.042;7.584;2023-03-21T01:23:16;4.50;99.90
26505;DHT22;19493;48.042;7.584;2023-03-21T01:25:42;4.50;99.90
26505;DHT22;19493;48.042;7.584;2023-03-21T01:28:08;4.50;99.90
26505;DHT22;19493;48.042;7.584;2023-03-21T01:30:35;4.50;99.90
26505;DHT22;19493;48.042;7.584;2023-03-21T01:33:00;4.50;99.90
26505;DHT22;19493;48.042;7.584;2023-03-21T01:35:26;4.50;99.90
26505;DHT22;19493;48.042;7.584;2023-03-21T01:37:52;4.50;99.90
26505;DHT22;19493;48.042;7.584;2023-03-21T01:40:24;4.60;99.90
26505;DHT22;19493;48.042;7.584;2023-03-21T01:42:51;4.60;99.90
26505;DHT22;19493;48.042;7.584;2023-03-21T01:48:20;4.60;99.90
26505;DHT22;19493;48.042;7.584;2023-03-21T01:50:48;4.60;99.90
26505;DHT22;19493;48.042;7.584;2023-03-21T01:53:15;4.60;99.90
26505;DHT22;19493;48.042;7.584;2023-03-21T01:55:41;4.60;99.90
26505;DHT22;19493;48.042;7.584;2023-03-21T01:58:09;4.60;99.90
26505;DHT22;19493;48.042;7.584;2023-03-21T02:00:36;4.60;99.90
26505;DHT22;19493;48.042;7.584;2023-03-21T02:03:06;4.60;99.90
26505;DHT22;19493;48.042;7.584;2023-03-21T02:06:00;4.60;99.90
26505;DHT22;19493;48.042;7.584;2023-03-21T02:08:29;4.60;99.90
26505;DHT22;19493;48.042;7.584;2023-03-21T02:10:54;4.60;99.90
26505;DHT22;19493;48.042;7.584;2023-03-21T02:13:20;4.60;99.90
26505;DHT22;19493;48.042;7.584;2023-03-21T02:19:08;4.60;99.90
26505;DHT22;19493;48.042;7.584;2023-03-21T02:24:52;4.60;99.90
26505;DHT22;19493;48.042;7.584;2023-03-21T02:27:17;4.60;99.90
26505;DHT22;19493;48.042;7.584;2023-03-21T02:38:10;4.50;99.90
26505;DHT22;19493;48.042;7.584;2023-03-21T02:41:05;4.50;99.90
26505;DHT22;19493;48.042;7.584;2023-03-21T02:44:16;4.50;99.90
26505;DHT22;19493;48.042;7.584;2023-03-21T02:46:31;4.40;99.90
26505;DHT22;19493;48.042;7.584;2023-03-21T02:49:22;4.40;99.90
26505;DHT22;19493;48.042;7.584;2023-03-21T02:51:49;4.30;99.90
26505;DHT22;19493;48.042;7.584;2023-03-21T02:54:20;4.30;99.90
26505;DHT22;19493;48.042;7.584;2023-03-21T02:56:49;4.30;99.90
26505;DHT22;19493;48.042;7.584;2023-03-21T02:59:17;4.30;99.90
26505;DHT22;19493;48.042;7.584;2023-03-21T03:01:44;4.20;99.90
26505;DHT22;19493;48.042;7.584;2023-03-21T03:04:20;4.10;99.90
26505;DHT22;19493;48.042;7.584;2023-03-21T03:07:02;4.10;99.90
26505;DHT22;19493;48.042;7.584;2023-03-21T03:15:41;4.20;99.90
26505;DHT22;19493;48.042;7.584;2023-03-21T03:18:23;4.10;99.90
26505;DHT22;19493;48.042;7.584;2023-03-21T03:23:51;4.20;99.90
26505;DHT22;19493;48.042;7.584;2023-03-21T03:26:22;4.20;99.90
26505;DHT22;19493;48.042;7.584;2023-03-21T03:28:51;4.10;99.90
26505;DHT22;19493;48.042;7.584;2023-03-21T03:31:22;4.10;99.90
26505;DHT22;19493;48.042;7.584;2023-03-21T03:33:52;4.10;99.90
26505;DHT22;19493;48.042;7.584;2023-03-21T03:36:22;4.10;99.90
26505;DHT22;19493;48.042;7.584;2023-03-21T03:38:49;4.10;99.90
26505;DHT22;19493;48.042;7.584;2023-03-21T03:41:41;4.10;99.90
26505;DHT22;19493;48.042;7.584;2023-03-21T03:44:07;4.10;99.90
26505;DHT22;19493;48.042;7.584;2023-03-21T03:49:19;4.10;99.90
26505;DHT22;19493;48.042;7.584;2023-03-21T03:52:03;4.00;99.90
26505;DHT22;19493;48.042;7.584;2023-03-21T03:54:33;4.00;99.90
26505;DHT22;19493;48.042;7.584;2023-03-21T03:57:02;3.90;99.90
26505;DHT22;19493;48.042;7.584;2023-03-21T03:59:28;3.80;99.90
26505;DHT22;19493;48.042;7.584;2023-03-21T04:01:54;3.80;99.90
26505;DHT22;19493;48.042;7.584;2023-03-21T04:04:20;3.80;99.90
26505;DHT22;19493;48.042;7.584;2023-03-21T04:06:47;3.80;99.90
26505;DHT22;19493;48.042;7.584;2023-03-21T04:09:16;3.80;99.90
26505;DHT22;19493;48.042;7.584;2023-03-21T04:11:42;3.80;99.90
26505;DHT22;19493;48.042;7.584;2023-03-21T04:14:08;3.80;99.90
26505;DHT22;19493;48.042;7.584;2023-03-21T04:16:33;3.70;99.90
26505;DHT22;19493;48.042;7.584;2023-03-21T04:18:59;3.70;99.90
26505;DHT22;19493;48.042;7.584;2023-03-21T04:21:25;3.70;99.90
26505;DHT22;19493;48.042;7.584;2023-03-21T04:23:52;3.70;99.90
26505;DHT22;19493;48.042;7.584;2023-03-21T04:26:19;3.60;99.90
26505;DHT22;19493;48.042;7.584;2023-03-21T04:28:45;3.60;99.90
26505;DHT22;19493;48.042;7.584;2023-03-21T04:31:11;3.60;99.90
26505;DHT22;19493;48.042;7.584;2023-03-21T04:33:38;3.60;99.90
26505;DHT22;19493;48.042;7.584;2023-03-21T04:36:05;3.60;99.90
26505;DHT22;19493;48.042;7.584;2023-03-21T04:38:34;3.50;99.90
26505;DHT22;19493;48.042;7.584;2023-03-21T04:41:00;3.40;99.90
26505;DHT22;19493;48.042;7.584;2023-03-21T04:43:26;3.40;99.90
26505;DHT22;19493;48.042;7.584;2023-03-21T04:45:53;3.40;99.90
26505;DHT22;19493;48.042;7.584;2023-03-21T04:48:19;3.30;99.90
26505;DHT22;19493;48.042;7.584;2023-03-21T04:50:49;3.30;99.90
26505;DHT22;19493;48.042;7.584;2023-03-21T04:53:14;3.20;99.90
26505;DHT22;19493;48.042;7.584;2023-03-21T04:55:40;3.10;99.90
26505;DHT22;19493;48.042;7.584;2023-03-21T04:58:06;3.10;99.90
26505;DHT22;19493;48.042;7.584;2023-03-21T05:00:31;3.00;99.90
26505;DHT22;19493;48.042;7.584;2023-03-21T05:03:05;3.00;99.90
26505;DHT22;19493;48.042;7.584;2023-03-21T05:05:35;3.10;99.90
26505;DHT22;19493;48.042;7.584;2023-03-21T05:08:02;3.10;99.90
26505;DHT22;19493;48.042;7.584;2023-03-21T05:10:27;3.20;99.90
26505;DHT22;19493;48.042;7.584;2023-03-21T05:12:53;3.20;99.90
26505;DHT22;19493;48.042;7.584;2023-03-21T05:15:18;3.30;99.90
26505;DHT22;19493;48.042;7.584;2023-03-21T05:17:44;3.30;99.90
26505;DHT22;19493;48.042;7.584;2023-03-21T05:20:13;3.30;99.90
26505;DHT22;19493;48.042;7.584;2023-03-21T05:22:40;3.40;99.90
26505;DHT22;19493;48.042;7.584;2023-03-21T05:25:07;3.50;99.90
26505;DHT22;19493;48.042;7.584;2023-03-21T05:27:33;3.50;99.90
26505;DHT22;19493;48.042;7.584;2023-03-21T05:30:01;3.50;99.90
26505;DHT22;19493;48.042;7.584;2023-03-21T05:32:26;3.60;99.90
26505;DHT22;19493;48.042;7.584;2023-03-21T05:34:52;3.60;99.90
26505;DHT22;19493;48.042;7.584;2023-03-21T05:37:17;3.70;99.90
26505;DHT22;19493;48.042;7.584;2023-03-21T05:39:43;3.70;99.90
26505;DHT22;19493;48.042;7.584;2023-03-21T05:42:08;3.80;99.90
26505;DHT22;19493;48.042;7.584;2023-03-21T05:44:34;3.80;99.90
26505;DHT22;19493;48.042;7.584;2023-03-21T05:47:00;3.80;99.90
26505;DHT22;19493;48.042;7.584;2023-03-21T05:49:25;3.90;99.90
26505;DHT22;19493;48.042;7.584;2023-03-21T05:51:51;3.90;99.90
26505;DHT22;19493;48.042;7.584;2023-03-21T05:54:17;4.00;99.90
26505;DHT22;19493;48.042;7.584;2023-03-21T05:56:42;4.00;99.90
26505;DHT22;19493;48.042;7.584;2023-03-21T05:59:08;4.10;99.90
26505;DHT22;19493;48.042;7.584;2023-03-21T06:01:33;4.20;99.90
26505;DHT22;19493;48.042;7.584;2023-03-21T06:03:59;4.30;99.90
26505;DHT22;19493;48.042;7.584;2023-03-21T06:06:24;4.50;99.90
26505;DHT22;19493;48.042;7.584;2023-03-21T06:08:50;4.60;99.90
26505;DHT22;19493;48.042;7.584;2023-03-21T06:11:26;4.80;99.90
26505;DHT22;19493;48.042;7.584;2023-03-21T06:13:53;4.90;99.90
26505;DHT22;19493;48.042;7.584;2023-03-21T06:16:18;5.10;99.90
26505;DHT22;19493;48.042;7.584;2023-03-21T06:18:44;5.30;99.90
26505;DHT22;19493;48.042;7.584;2023-03-21T06:21:09;5.40;99.90
26505;DHT22;19493;48.042;7.584;2023-03-21T06:23:35;5.70;99.90
26505;DHT22;19493;48.042;7.584;2023-03-21T06:26:02;5.80;99.90
26505;DHT22;19493;48.042;7.584;2023-03-21T06:28:27;6.00;99.90
26505;DHT22;19493;48.042;7.584;2023-03-21T06:30:53;6.10;99.90
26505;DHT22;19493;48.042;7.584;2023-03-21T06:33:19;6.30;99.90
26505;DHT22;19493;48.042;7.584;2023-03-21T06:35:53;6.40;99.90
26505;DHT22;19493;48.042;7.584;2023-03-21T06:38:19;6.60;99.90
26505;DHT22;19493;48.042;7.584;2023-03-21T06:40:46;6.80;99.90
26505;DHT22;19493;48.042;7.584;2023-03-21T06:43:12;6.90;99.90
26505;DHT22;19493;48.042;7.584;2023-03-21T06:45:38;7.00;99.90
26505;DHT22;19493;48.042;7.584;2023-03-21T06:48:04;7.10;99.90
26505;DHT22;19493;48.042;7.584;2023-03-21T06:50:30;7.30;99.90
26505;DHT22;19493;48.042;7.584;2023-03-21T06:52:55;7.40;99.90
26505;DHT22;19493;48.042;7.584;2023-03-21T06:55:24;7.60;99.90
26505;DHT22;19493;48.042;7.584;2023-03-21T06:57:55;7.60;99.90
26505;DHT22;19493;48.042;7.584;2023-03-21T07:00:22;7.80;99.90
26505;DHT22;19493;48.042;7.584;2023-03-21T07:02:48;8.00;99.90
26505;DHT22;19493;48.042;7.584;2023-03-21T07:05:14;8.20;99.90
26505;DHT22;19493;48.042;7.584;2023-03-21T07:07:40;8.50;99.90
26505;DHT22;19493;48.042;7.584;2023-03-21T07:10:06;8.70;99.90
26505;DHT22;19493;48.042;7.584;2023-03-21T07:12:32;8.90;99.90
26505;DHT22;19493;48.042;7.584;2023-03-21T07:15:02;9.20;99.90
26505;DHT22;19493;48.042;7.584;2023-03-21T07:17:29;9.50;99.90
26505;DHT22;19493;48.042;7.584;2023-03-21T07:19:54;9.70;99.90
26505;DHT22;19493;48.042;7.584;2023-03-21T07:22:20;9.80;99.90
26505;DHT22;19493;48.042;7.584;2023-03-21T07:24:45;9.90;99.90
26505;DHT22;19493;48.042;7.584;2023-03-21T07:27:14;10.00;99.90
26505;DHT22;19493;48.042;7.584;2023-03-21T07:29:40;10.00;99.90
26505;DHT22;19493;48.042;7.584;2023-03-21T07:32:06;9.90;99.90
26505;DHT22;19493;48.042;7.584;2023-03-21T07:34:32;10.00;99.90
26505;DHT22;19493;48.042;7.584;2023-03-21T07:36:58;9.80;99.90
26505;DHT22;19493;48.042;7.584;2023-03-21T07:39:25;9.60;99.90
26505;DHT22;19493;48.042;7.584;2023-03-21T07:41:51;9.60;99.90
26505;DHT22;19493;48.042;7.584;2023-03-21T07:44:20;9.50;99.90
26505;DHT22;19493;48.042;7.584;2023-03-21T07:46:46;9.60;99.90
26505;DHT22;19493;48.042;7.584;2023-03-21T07:49:12;9.60;99.90
26505;DHT22;19493;48.042;7.584;2023-03-21T07:51:38;9.60;99.90
26505;DHT22;19493;48.042;7.584;2023-03-21T07:54:03;9.60;99.90
26505;DHT22;19493;48.042;7.584;2023-03-21T07:56:29;9.70;99.90
26505;DHT22;19493;48.042;7.584;2023-03-21T07:58:55;9.90;99.90
26505;DHT22;19493;48.042;7.584;2023-03-21T08:01:22;10.00;99.90
26505;DHT22;19493;48.042;7.584;2023-03-21T08:03:47;10.10;99.90
26505;DHT22;19493;48.042;7.584;2023-03-21T08:06:13;10.30;99.90
26505;DHT22;19493;48.042;7.584;2023-03-21T08:08:39;10.40;99.90
26505;DHT22;19493;48.042;7.584;2023-03-21T08:11:05;10.50;99.90
26505;DHT22;19493;48.042;7.584;2023-03-21T08:13:32;10.70;99.90
26505;DHT22;19493;48.042;7.584;2023-03-21T08:15:58;10.80;99.90
26505;DHT22;19493;48.042;7.584;2023-03-21T08:18:23;10.80;99.90
26505;DHT22;19493;48.042;7.584;2023-03-21T08:20:56;10.80;99.90
26505;DHT22;19493;48.042;7.584;2023-03-21T08:23:22;10.80;99.90
26505;DHT22;19493;48.042;7.584;2023-03-21T08:25:52;11.00;99.90
26505;DHT22;19493;48.042;7.584;2023-03-21T08:28:19;11.10;99.90
26505;DHT22;19493;48.042;7.584;2023-03-21T08:30:45;11.20;99.90
26505;DHT22;19493;48.042;7.584;2023-03-21T08:33:10;11.20;99.90
26505;DHT22;19493;48.042;7.584;2023-03-21T08:35:37;11.40;99.90
26505;DHT22;19493;48.042;7.584;2023-03-21T08:38:04;11.50;99.90
26505;DHT22;19493;48.042;7.584;2023-03-21T08:40:30;11.70;99.90
26505;DHT22;19493;48.042;7.584;2023-03-21T08:42:56;12.10;99.90
26505;DHT22;19493;48.042;7.584;2023-03-21T08:45:22;12.20;99.90
26505;DHT22;19493;48.042;7.584;2023-03-21T08:47:48;12.50;99.90
26505;DHT22;19493;48.042;7.584;2023-03-21T08:50:18;12.50;99.90
26505;DHT22;19493;48.042;7.584;2023-03-21T08:52:43;12.50;99.90
26505;DHT22;19493;48.042;7.584;2023-03-21T08:55:10;12.50;99.90
26505;DHT22;19493;48.042;7.584;2023-03-21T08:57:36;12.90;99.90
26505;DHT22;19493;48.042;7.584;2023-03-21T09:00:04;13.30;99.90
26505;DHT22;19493;48.042;7.584;2023-03-21T09:02:43;13.70;99.90
26505;DHT22;19493;48.042;7.584;2023-03-21T09:05:10;14.00;99.90
26505;DHT22;19493;48.042;7.584;2023-03-21T09:07:37;14.40;99.90
26505;DHT22;19493;48.042;7.584;2023-03-21T09:10:04;14.50;99.90
26505;DHT22;19493;48.042;7.584;2023-03-21T09:12:32;14.40;99.90
26505;DHT22;19493;48.042;7.584;2023-03-21T09:14:58;14.30;99.90
26505;DHT22;19493;48.042;7.584;2023-03-21T09:17:23;14.50;99.90
26505;DHT22;19493;48.042;7.584;2023-03-21T09:19:49;14.80;99.90
26505;DHT22;19493;48.042;7.584;2023-03-21T09:22:15;15.30;99.90
26505;DHT22;19493;48.042;7.584;2023-03-21T09:24:45;15.40;99.90
26505;DHT22;19493;48.042;7.584;2023-03-21T09:27:12;15.60;99.90
26505;DHT22;19493;48.042;7.584;2023-03-21T09:29:38;15.90;99.90
26505;DHT22;19493;48.042;7.584;2023-03-21T09:32:08;16.20;99.90
26505;DHT22;19493;48.042;7.584;2023-03-21T09:34:34;16.60;99.90
26505;DHT22;19493;48.042;7.584;2023-03-21T09:37:01;17.00;99.90
26505;DHT22;19493;48.042;7.584;2023-03-21T09:39:28;17.60;99.90
26505;DHT22;19493;48.042;7.584;2023-03-21T09:42:17;18.20;99.90
26505;DHT22;19493;48.042;7.584;2023-03-21T09:47:21;19.70;94.60
26505;DHT22;19493;48.042;7.584;2023-03-21T09:52:45;19.70;91.40
26505;DHT22;19493;48.042;7.584;2023-03-21T09:55:16;19.40;90.70
26505;DHT22;19493;48.042;7.584;2023-03-21T09:57:45;19.60;88.60
26505;DHT22;19493;48.042;7.584;2023-03-21T10:00:25;19.60;86.50
26505;DHT22;19493;48.042;7.584;2023-03-21T10:02:53;19.40;87.30
26505;DHT22;19493;48.042;7.584;2023-03-21T10:05:26;19.20;86.70
26505;DHT22;19493;48.042;7.584;2023-03-21T10:08:03;19.60;86.90
26505;DHT22;19493;48.042;7.584;2023-03-21T10:10:35;20.30;84.20
26505;DHT22;19493;48.042;7.584;2023-03-21T10:13:02;20.70;83.30
26505;DHT22;19493;48.042;7.584;2023-03-21T10:15:30;21.50;82.50
26505;DHT22;19493;48.042;7.584;2023-03-21T10:18:00;22.10;79.90
26505;DHT22;19493;48.042;7.584;2023-03-21T10:20:35;22.10;77.70
26505;DHT22;19493;48.042;7.584;2023-03-21T10:23:07;22.50;75.90
26505;DHT22;19493;48.042;7.584;2023-03-21T10:25:40;23.10;71.80
26505;DHT22;19493;48.042;7.584;2023-03-21T10:28:08;23.10;71.50
26505;DHT22;19493;48.042;7.584;2023-03-21T10:30:51;23.70;68.30
26505;DHT22;19493;48.042;7.584;2023-03-21T10:33:21;24.30;67.90
26505;DHT22;19493;48.042;7.584;2023-03-21T10:36:15;24.90;63.50
26505;DHT22;19493;48.042;7.584;2023-03-21T10:38:48;25.60;61.00
26505;DHT22;19493;48.042;7.584;2023-03-21T10:41:15;25.30;60.00
26505;DHT22;19493;48.042;7.584;2023-03-21T10:46:11;27.00;83.30
26505;DHT22;19493;48.042;7.584;2023-03-21T10:48:39;26.90;81.60
26505;DHT22;19493;48.042;7.584;2023-03-21T10:51:07;26.80;80.20
26505;DHT22;19493;48.042;7.584;2023-03-21T10:53:45;26.80;81.90
26505;DHT22;19493;48.042;7.584;2023-03-21T10:56:14;26.60;80.20
26505;DHT22;19493;48.042;7.584;2023-03-21T10:58:45;26.50;81.80
26505;DHT22;19493;48.042;7.584;2023-03-21T11:01:15;26.70;82.20
26505;DHT22;19493;48.042;7.584;2023-03-21T11:03:46;26.80;81.30
26505;DHT22;19493;48.042;7.584;2023-03-21T11:09:00;27.00;78.00
26505;DHT22;19493;48.042;7.584;2023-03-21T11:11:33;25.80;77.70
26505;DHT22;19493;48.042;7.584;2023-03-21T11:14:02;25.10;77.50
26505;DHT22;19493;48.042;7.584;2023-03-21T11:16:42;24.20;60.10
26505;DHT22;19493;48.042;7.584;2023-03-21T11:19:19;23.40;54.60
26505;DHT22;19493;48.042;7.584;2023-03-21T11:21:50;22.40;56.70
26505;DHT22;19493;48.042;7.584;2023-03-21T11:24:16;21.90;57.50
26505;DHT22;19493;48.042;7.584;2023-03-21T11:26:45;22.00;58.10
26505;DHT22;19493;48.042;7.584;2023-03-21T11:29:38;22.20;57.50
26505;DHT22;19493;48.042;7.584;2023-03-21T11:32:24;22.90;55.20
26505;DHT22;19493;48.042;7.584;2023-03-21T11:35:00;21.80;55.30
26505;DHT22;19493;48.042;7.584;2023-03-21T11:42:44;20.50;58.70
26505;DHT22;19493;48.042;7.584;2023-03-21T11:45:16;20.40;59.60
26505;DHT22;19493;48.042;7.584;2023-03-21T11:47:42;20.80;59.30
26505;DHT22;19493;48.042;7.584;2023-03-21T11:50:25;21.40;58.30
26505;DHT22;19493;48.042;7.584;2023-03-21T11:53:11;22.10;57.50
26505;DHT22;19493;48.042;7.584;2023-03-21T11:58:36;22.60;56.60
26505;DHT22;19493;48.042;7.584;2023-03-21T12:06:44;22.10;56.50
26505;DHT22;19493;48.042;7.584;2023-03-21T12:14:59;21.40;59.50
26505;DHT22;19493;48.042;7.584;2023-03-21T12:17:54;21.50;58.90
26505;DHT22;19493;48.042;7.584;2023-03-21T12:20:46;21.20;59.40
26505;DHT22;19493;48.042;7.584;2023-03-21T12:25:56;20.60;60.20
26505;DHT22;19493;48.042;7.584;2023-03-21T12:37:08;24.00;91.90
26505;DHT22;19493;48.042;7.584;2023-03-21T12:39:39;25.40;75.20
26505;DHT22;19493;48.042;7.584;2023-03-21T12:44:54;24.40;73.60
26505;DHT22;19493;48.042;7.584;2023-03-21T12:47:25;23.40;89.40
26505;DHT22;19493;48.042;7.584;2023-03-21T12:52:53;22.80;90.10
26505;DHT22;19493;48.042;7.584;2023-03-21T12:55:23;22.70;89.30
26505;DHT22;19493;48.042;7.584;2023-03-21T12:58:01;22.50;89.40
26505;DHT22;19493;48.042;7.584;2023-03-21T13:00:43;22.50;89.30
26505;DHT22;19493;48.042;7.584;2023-03-21T13:03:16;22.60;89.00
26505;DHT22;19493;48.042;7.584;2023-03-21T13:06:01;23.00;87.60
26505;DHT22;19493;48.042;7.584;2023-03-21T13:08:57;23.70;88.40
26505;DHT22;19493;48.042;7.584;2023-03-21T13:11:28;24.60;84.50
26505;DHT22;19493;48.042;7.584;2023-03-21T13:14:01;25.30;79.00
26505;DHT22;19493;48.042;7.584;2023-03-21T13:16:45;25.60;78.00
26505;DHT22;19493;48.042;7.584;2023-03-21T13:19:22;25.70;82.80
26505;DHT22;19493;48.042;7.584;2023-03-21T13:22:16;24.60;82.10
26505;DHT22;19493;48.042;7.584;2023-03-21T13:24:55;24.10;83.10
26505;DHT22;19493;48.042;7.584;2023-03-21T13:27:34;23.60;86.40
26505;DHT22;19493;48.042;7.584;2023-03-21T13:32:39;23.60;86.70
26505;DHT22;19493;48.042;7.584;2023-03-21T13:35:32;23.50;85.90
26505;DHT22;19493;48.042;7.584;2023-03-21T13:40:51;23.60;86.30
26505;DHT22;19493;48.042;7.584;2023-03-21T13:53:39;23.60;83.70
26505;DHT22;19493;48.042;7.584;2023-03-21T14:06:41;21.60;90.70
26505;DHT22;19493;48.042;7.584;2023-03-21T14:09:09;21.10;53.50
26505;DHT22;19493;48.042;7.584;2023-03-21T14:11:39;21.20;54.00
26505;DHT22;19493;48.042;7.584;2023-03-21T14:14:07;21.30;53.60
26505;DHT22;19493;48.042;7.584;2023-03-21T14:16:33;21.20;53.50
26505;DHT22;19493;48.042;7.584;2023-03-21T14:19:02;21.30;53.40
26505;DHT22;19493;48.042;7.584;2023-03-21T14:21:31;21.80;52.60
26505;DHT22;19493;48.042;7.584;2023-03-21T14:24:04;22.40;53.00
26505;DHT22;19493;48.042;7.584;2023-03-21T14:26:36;22.70;50.80
26505;DHT22;19493;48.042;7.584;2023-03-21T14:29:05;22.80;50.90
26505;DHT22;19493;48.042;7.584;2023-03-21T14:31:32;22.70;50.80
26505;DHT22;19493;48.042;7.584;2023-03-21T14:33:58;22.60;51.50
26505;DHT22;19493;48.042;7.584;2023-03-21T14:36:29;22.40;51.20
26505;DHT22;19493;48.042;7.584;2023-03-21T14:39:03;22.00;52.30
26505;DHT22;19493;48.042;7.584;2023-03-21T14:41:31;21.60;53.30
26505;DHT22;19493;48.042;7.584;2023-03-21T14:44:18;21.20;53.30
26505;DHT22;19493;48.042;7.584;2023-03-21T14:46:50;20.60;53.90
26505;DHT22;19493;48.042;7.584;2023-03-21T14:49:28;20.30;54.30
26505;DHT22;19493;48.042;7.584;2023-03-21T14:51:56;20.00;55.20
26505;DHT22;19493;48.042;7.584;2023-03-21T14:54:22;19.90;55.30
26505;DHT22;19493;48.042;7.584;2023-03-21T14:56:51;19.80;55.00
26505;DHT22;19493;48.042;7.584;2023-03-21T14:59:21;19.60;54.90
26505;DHT22;19493;48.042;7.584;2023-03-21T15:01:49;19.60;55.30
26505;DHT22;19493;48.042;7.584;2023-03-21T15:04:16;19.60;55.00
26505;DHT22;19493;48.042;7.584;2023-03-21T15:06:54;19.70;54.90
26505;DHT22;19493;48.042;7.584;2023-03-21T15:09:23;19.70;54.30
26505;DHT22;19493;48.042;7.584;2023-03-21T15:11:54;19.60;54.80
26505;DHT22;19493;48.042;7.584;2023-03-21T15:14:33;19.60;54.80
26505;DHT22;19493;48.042;7.584;2023-03-21T15:17:01;19.60;54.70
26505;DHT22;19493;48.042;7.584;2023-03-21T15:19:34;19.70;55.10
26505;DHT22;19493;48.042;7.584;2023-03-21T15:22:08;19.60;55.20
26505;DHT22;19493;48.042;7.584;2023-03-21T15:24:38;19.50;55.80
26505;DHT22;19493;48.042;7.584;2023-03-21T15:27:12;19.30;56.40
26505;DHT22;19493;48.042;7.584;2023-03-21T15:29:38;19.20;56.80
26505;DHT22;19493;48.042;7.584;2023-03-21T15:32:11;19.00;56.60
26505;DHT22;19493;48.042;7.584;2023-03-21T15:34:37;18.80;57.00
26505;DHT22;19493;48.042;7.584;2023-03-21T15:37:20;18.70;57.30
26505;DHT22;19493;48.042;7.584;2023-03-21T15:39:46;18.60;57.80
26505;DHT22;19493;48.042;7.584;2023-03-21T15:42:29;18.60;58.10
26505;DHT22;19493;48.042;7.584;2023-03-21T15:45:00;18.50;58.40
26505;DHT22;19493;48.042;7.584;2023-03-21T15:48:20;18.30;58.20
26505;DHT22;19493;48.042;7.584;2023-03-21T15:50:38;18.20;59.00
26505;DHT22;19493;48.042;7.584;2023-03-21T15:53:15;18.20;59.10
26505;DHT22;19493;48.042;7.584;2023-03-21T15:55:50;18.20;58.90
26505;DHT22;19493;48.042;7.584;2023-03-21T15:58:20;18.10;59.00
26505;DHT22;19493;48.042;7.584;2023-03-21T16:01:00;18.00;58.80
26505;DHT22;19493;48.042;7.584;2023-03-21T16:03:31;17.90;59.10
26505;DHT22;19493;48.042;7.584;2023-03-21T16:06:06;17.90;60.00
26505;DHT22;19493;48.042;7.584;2023-03-21T16:08:35;17.90;59.90
26505;DHT22;19493;48.042;7.584;2023-03-21T16:11:53;17.80;60.20
26505;DHT22;19493;48.042;7.584;2023-03-21T16:13:55;17.70;59.90
26505;DHT22;19493;48.042;7.584;2023-03-21T16:16:23;17.60;60.00
26505;DHT22;19493;48.042;7.584;2023-03-21T16:18:49;17.50;60.40
26505;DHT22;19493;48.042;7.584;2023-03-21T16:21:17;17.50;60.90
26505;DHT22;19493;48.042;7.584;2023-03-21T16:23:44;17.40;61.70
26505;DHT22;19493;48.042;7.584;2023-03-21T16:26:12;17.30;61.80
26505;DHT22;19493;48.042;7.584;2023-03-21T16:28:38;17.30;62.30
26505;DHT22;19493;48.042;7.584;2023-03-21T16:31:04;17.20;62.80
26505;DHT22;19493;48.042;7.584;2023-03-21T16:33:29;17.10;62.90
26505;DHT22;19493;48.042;7.584;2023-03-21T16:35:55;17.00;63.10
26505;DHT22;19493;48.042;7.584;2023-03-21T16:38:22;16.90;63.80
26505;DHT22;19493;48.042;7.584;2023-03-21T16:40:48;16.80;63.90
26505;DHT22;19493;48.042;7.584;2023-03-21T16:43:15;16.80;64.40
26505;DHT22;19493;48.042;7.584;2023-03-21T16:45:41;16.70;64.60
26505;DHT22;19493;48.042;7.584;2023-03-21T16:48:06;16.60;66.20
26505;DHT22;19493;48.042;7.584;2023-03-21T16:50:39;16.50;65.30
26505;DHT22;19493;48.042;7.584;2023-03-21T16:53:06;16.50;65.60
26505;DHT22;19493;48.042;7.584;2023-03-21T16:55:32;16.40;65.90
26505;DHT22;19493;48.042;7.584;2023-03-21T16:57:59;16.40;65.20
26505;DHT22;19493;48.042;7.584;2023-03-21T17:00:26;16.30;65.10
26505;DHT22;19493;48.042;7.584;2023-03-21T17:02:54;16.30;64.80
26505;DHT22;19493;48.042;7.584;2023-03-21T17:05:22;16.30;65.20
26505;DHT22;19493;48.042;7.584;2023-03-21T17:07:47;16.20;64.60
26505;DHT22;19493;48.042;7.584;2023-03-21T17:10:24;16.20;64.60
26505;DHT22;19493;48.042;7.584;2023-03-21T17:12:51;16.10;64.80
26505;DHT22;19493;48.042;7.584;2023-03-21T17:15:17;16.10;65.00
26505;DHT22;19493;48.042;7.584;2023-03-21T17:17:44;16.00;65.40
26505;DHT22;19493;48.042;7.584;2023-03-21T17:20:24;16.00;65.90
26505;DHT22;19493;48.042;7.584;2023-03-21T17:22:50;15.90;66.60
26505;DHT22;19493;48.042;7.584;2023-03-21T17:25:17;15.80;68.20
26505;DHT22;19493;48.042;7.584;2023-03-21T17:27:43;15.80;67.90
26505;DHT22;19493;48.042;7.584;2023-03-21T17:30:24;15.70;68.50
26505;DHT22;19493;48.042;7.584;2023-03-21T17:32:50;15.60;68.90
26505;DHT22;19493;48.042;7.584;2023-03-21T17:35:16;15.50;69.20
26505;DHT22;19493;48.042;7.584;2023-03-21T17:37:42;15.50;69.60